Time,TemperatureF,DewpointF,PressureIn,WindDirection,WindDirectionDegrees,WindSpeedMPH,WindSpeedGustMPH,Humidity,HourlyPrecipIn,Conditions,Clouds,dailyrainin,SolarRadiationWatts/m^2,SoftwareType,DateUTC
2013-02-06 00:08:00,39.3,23.0,30.25,North,355,6.0,11.0,53,0.00,,,0.00,0,weatherlink.com 1.10,2013-02-06 07:08:00,
2013-02-06 00:23:00,38.1,24.0,30.25,North,9,13.0,14.0,58,0.00,,,0.00,0,weatherlink.com 1.10,2013-02-06 07:23:00,
2013-02-06 00:38:00,37.7,24.0,30.25,NE,36,17.0,18.0,59,0.00,,,0.00,0,weatherlink.com 1.10,2013-02-06 07:38:00,
2013-02-06 00:53:00,37.9,25.0,30.25,NNE,32,12.0,16.0,59,0.00,,,0.00,0,weatherlink.com 1.10,2013-02-06 07:53:00,
2013-02-06 01:08:00,38.3,25.0,30.26,North,5,15.0,17.0,58,0.00,,,0.00,0,weatherlink.com 1.10,2013-02-06 08:08:00,
2013-02-06 01:23:00,37.2,26.0,30.26,North,5,12.0,15.0,64,0.00,,,0.00,0,weatherlink.com 1.10,2013-02-06 08:23:00,
2013-02-06 01:38:00,36.4,27.0,30.27,NE,52,8.0,15.0,69,0.00,,,0.00,0,weatherlink.com 1.10,2013-02-06 08:38:00,
2013-02-06 01:53:00,35.9,28.0,30.26,NE,49,7.0,12.0,72,0.00,,,0.00,0,weatherlink.com 1.10,2013-02-06 08:53:00,
2013-02-06 02:08:00,35.9,28.0,30.27,ENE,68,3.0,8.0,72,0.00,,,0.00,0,weatherlink.com 1.10,2013-02-06 09:08:00,
2013-02-06 02:23:00,35.9,27.0,30.27,NE,34,7.0,7.0,71,0.00,,,0.00,0,weatherlink.com 1.10,2013-02-06 09:23:00,
2013-02-06 02:38:00,36.4,27.0,30.27,ENE,62,3.0,7.0,70,0.00,,,0.00,0,weatherlink.com 1.10,2013-02-06 09:38:00,
2013-02-06 02:53:00,36.0,28.0,30.27,East,98,7.0,8.0,72,0.00,,,0.00,0,weatherlink.com 1.10,2013-02-06 09:53:00,
2013-02-06 03:08:00,35.0,28.0,30.27,SSW,198,8.0,12.0,75,0.00,,,0.00,0,weatherlink.com 1.10,2013-02-06 10:08:00,
2013-02-06 03:23:00,34.4,28.0,30.27,South,177,0.0,5.0,77,0.00,,,0.00,0,weatherlink.com 1.10,2013-02-06 10:23:00,
2013-02-06 03:38:00,34.6,28.0,30.28,SSE,150,3.0,4.0,76,0.00,,,0.00,0,weatherlink.com 1.10,2013-02-06 10:38:00,
2013-02-06 04:08:00,34.4,28.0,30.28,South,186,8.0,10.0,77,0.00,,,0.00,0,weatherlink.com 1.10,2013-02-06 11:08:00,
2013-02-06 04:23:00,32.3,29.0,30.28,SSE,154,10.0,13.0,86,0.00,,,0.00,0,weatherlink.com 1.10,2013-02-06 11:23:00,
2013-02-06 04:38:00,32.9,29.0,30.28,SE,146,11.0,14.0,86,0.00,,,0.00,0,weatherlink.com 1.10,2013-02-06 11:38:00,
2013-02-06 04:53:00,33.0,30.0,30.28,SSE,161,8.0,14.0,88,0.00,,,0.00,0,weatherlink.com 1.10,2013-02-06 11:53:00,
2013-02-06 05:08:00,33.1,30.0,30.28,ESE,119,9.0,14.0,89,0.00,,,0.00,0,weatherlink.com 1.10,2013-02-06 12:08:00,
2013-02-06 05:23:00,33.0,30.0,30.29,SE,136,5.0,10.0,89,0.00,,,0.00,0,weatherlink.com 1.10,2013-02-06 12:23:00,
2013-02-06 05:38:00,33.5,30.0,30.29,ESE,118,3.0,7.0,87,0.00,,,0.00,0,weatherlink.com 1.10,2013-02-06 12:38:00,
2013-02-06 05:53:00,33.3,30.0,30.30,WNW,296,0.0,4.0,87,0.00,,,0.00,0,weatherlink.com 1.10,2013-02-06 12:53:00,
2013-02-06 06:08:00,33.3,30.0,30.29,SE,126,2.0,4.0,88,0.00,,,0.00,0,weatherlink.com 1.10,2013-02-06 13:08:00,
2013-02-06 06:23:00,32.6,30.0,30.29,South,174,0.0,4.0,90,0.00,,,0.00,0,weatherlink.com 1.10,2013-02-06 13:23:00,
2013-02-06 06:38:00,31.2,29.0,30.30,SSW,204,5.0,7.0,93,0.00,,,0.00,0,weatherlink.com 1.10,2013-02-06 13:38:00,
2013-02-06 06:53:00,31.3,30.0,30.30,South,175,3.0,7.0,94,0.00,,,0.00,0,weatherlink.com 1.10,2013-02-06 13:53:00,
2013-02-06 07:08:00,31.3,30.0,30.31,SSE,149,2.0,8.0,94,0.00,,,0.00,0,weatherlink.com 1.10,2013-02-06 14:08:00,
2013-02-06 07:23:00,31.5,30.0,30.31,SE,138,8.0,10.0,95,0.00,,,0.00,0,weatherlink.com 1.10,2013-02-06 14:23:00,
2013-02-06 07:38:00,31.7,31.0,30.32,South,169,2.0,12.0,95,0.00,,,0.00,0,weatherlink.com 1.10,2013-02-06 14:38:00,
2013-02-06 07:53:00,31.7,31.0,30.33,SSE,155,1.0,6.0,95,0.00,,,0.00,5,weatherlink.com 1.10,2013-02-06 14:53:00,
2013-02-06 08:08:00,31.9,30.0,30.32,SSE,167,4.0,8.0,94,0.00,,,0.00,14,weatherlink.com 1.10,2013-02-06 15:08:00,
2013-02-06 08:24:00,32.0,30.0,30.33,South,171,4.0,10.0,93,0.00,,,0.00,19,weatherlink.com 1.10,2013-02-06 15:24:00,
2013-02-06 08:39:00,32.2,30.0,30.33,SSE,160,7.0,11.0,93,0.00,,,0.00,35,weatherlink.com 1.10,2013-02-06 15:39:00,
2013-02-06 08:54:00,32.5,30.0,30.34,South,189,10.0,13.0,91,0.00,,,0.00,54,weatherlink.com 1.10,2013-02-06 15:54:00,
2013-02-06 09:09:00,32.6,30.0,30.34,SE,146,1.0,4.0,91,0.00,,,0.00,42,weatherlink.com 1.10,2013-02-06 16:09:00,
2013-02-06 09:24:00,32.6,30.0,30.36,South,182,2.0,5.0,91,0.00,,,0.00,53,weatherlink.com 1.10,2013-02-06 16:24:00,
2013-02-06 09:39:00,33.0,30.0,30.36,SSE,168,5.0,8.0,88,0.00,,,0.00,74,weatherlink.com 1.10,2013-02-06 16:39:00,
2013-02-06 09:54:00,33.4,30.0,30.36,SSE,153,13.0,16.0,87,0.00,,,0.00,104,weatherlink.com 1.10,2013-02-06 16:54:00,
2013-02-06 10:09:00,33.7,30.0,30.36,SSE,163,8.0,15.0,87,0.00,,,0.00,204,weatherlink.com 1.10,2013-02-06 17:09:00,
2013-02-06 10:24:00,33.3,30.0,30.37,SSE,168,6.0,15.0,89,0.01,,,0.01,172,weatherlink.com 1.10,2013-02-06 17:24:00,
2013-02-06 10:39:00,33.2,30.0,30.37,South,187,6.0,10.0,88,0.01,,,0.01,125,weatherlink.com 1.10,2013-02-06 17:39:00,
2013-02-06 10:54:00,34.0,31.0,30.36,South,181,3.0,14.0,89,0.01,,,0.01,501,weatherlink.com 1.10,2013-02-06 17:54:00,
2013-02-06 11:09:00,34.8,32.0,30.37,WSW,238,4.0,9.0,89,0.01,,,0.01,302,weatherlink.com 1.10,2013-02-06 18:09:00,
2013-02-06 11:24:00,35.6,32.0,30.38,South,186,3.0,10.0,87,0.00,,,0.01,548,weatherlink.com 1.10,2013-02-06 18:24:00,
2013-02-06 11:40:00,34.6,31.0,30.39,South,182,3.0,10.0,85,0.00,,,0.01,104,weatherlink.com 1.10,2013-02-06 18:40:00,
2013-02-06 11:54:00,34.5,31.0,30.39,SSE,161,10.0,11.0,86,0.00,,,0.01,84,weatherlink.com 1.10,2013-02-06 18:54:00,
2013-02-06 12:09:00,35.3,32.0,30.39,SSE,159,6.0,12.0,87,0.00,,,0.01,613,weatherlink.com 1.10,2013-02-06 19:09:00,
2013-02-06 12:24:00,36.2,32.0,30.38,South,184,4.0,16.0,83,0.00,,,0.01,671,weatherlink.com 1.10,2013-02-06 19:24:00,
2013-02-06 12:39:00,36.8,31.0,30.38,SSW,200,7.0,10.0,79,0.00,,,0.01,176,weatherlink.com 1.10,2013-02-06 19:39:00,
2013-02-06 12:54:00,37.1,31.0,30.38,SSE,157,5.0,12.0,78,0.00,,,0.01,309,weatherlink.com 1.10,2013-02-06 19:54:00,
2013-02-06 13:09:00,37.2,30.0,30.37,SSE,151,2.0,8.0,75,0.00,,,0.01,114,weatherlink.com 1.10,2013-02-06 20:09:00,
2013-02-06 13:24:00,36.2,31.0,30.38,WSW,252,5.0,10.0,82,0.00,,,0.01,97,weatherlink.com 1.10,2013-02-06 20:24:00,
2013-02-06 13:39:00,35.5,31.0,30.38,WNW,286,0.0,6.0,85,0.00,,,0.01,116,weatherlink.com 1.10,2013-02-06 20:39:00,
2013-02-06 13:54:00,35.5,31.0,30.39,SSW,212,2.0,7.0,85,0.00,,,0.01,86,weatherlink.com 1.10,2013-02-06 20:54:00,
2013-02-06 14:09:00,34.7,31.0,30.40,NNW,340,10.0,12.0,86,0.00,,,0.01,65,weatherlink.com 1.10,2013-02-06 21:09:00,
2013-02-06 14:24:00,32.9,31.0,30.39,ESE,105,8.0,10.0,91,0.00,,,0.01,67,weatherlink.com 1.10,2013-02-06 21:24:00,
2013-02-06 14:39:00,33.9,31.0,30.39,South,182,2.0,3.0,87,0.00,,,0.01,63,weatherlink.com 1.10,2013-02-06 21:39:00,
2013-02-06 14:54:00,34.4,32.0,30.40,NW,324,2.0,5.0,89,0.00,,,0.01,113,weatherlink.com 1.10,2013-02-06 21:54:00,
2013-02-06 15:09:00,34.5,31.0,30.40,ENE,62,2.0,4.0,87,0.00,,,0.01,67,weatherlink.com 1.10,2013-02-06 22:09:00,
2013-02-06 15:24:00,34.4,32.0,30.40,NNW,348,3.0,6.0,89,0.00,,,0.01,67,weatherlink.com 1.10,2013-02-06 22:24:00,
2013-02-06 15:39:00,34.4,30.0,30.41,North,5,1.0,4.0,84,0.00,,,0.01,76,weatherlink.com 1.10,2013-02-06 22:39:00,
2013-02-06 15:54:00,35.5,31.0,30.41,North,5,2.0,4.0,85,0.00,,,0.01,91,weatherlink.com 1.10,2013-02-06 22:54:00,
2013-02-06 16:09:00,36.8,30.0,30.41,North,350,6.0,11.0,75,0.00,,,0.01,44,weatherlink.com 1.10,2013-02-06 23:09:00,
2013-02-06 16:24:00,36.7,29.0,30.41,NNE,30,3.0,9.0,75,0.00,,,0.01,40,weatherlink.com 1.10,2013-02-06 23:24:00,
2013-02-06 16:39:00,36.2,29.0,30.42,NNE,17,8.0,10.0,74,0.00,,,0.01,37,weatherlink.com 1.10,2013-02-06 23:39:00,
2013-02-06 16:54:00,36.1,28.0,30.42,NE,47,5.0,9.0,73,0.00,,,0.01,35,weatherlink.com 1.10,2013-02-06 23:54:00,
2013-02-06 17:09:00,36.6,28.0,30.42,ENE,68,8.0,9.0,70,0.00,,,0.01,21,weatherlink.com 1.10,2013-02-07 00:09:00,
2013-02-06 17:24:00,35.7,28.0,30.43,NNE,26,6.0,8.0,74,0.00,,,0.01,16,weatherlink.com 1.10,2013-02-07 00:24:00,
2013-02-06 17:40:00,35.5,26.0,30.43,NE,48,10.0,11.0,69,0.00,,,0.01,7,weatherlink.com 1.10,2013-02-07 00:40:00,
2013-02-06 17:55:00,35.7,26.0,30.44,ENE,59,9.0,10.0,68,0.00,,,0.01,0,weatherlink.com 1.10,2013-02-07 00:55:00,
2013-02-06 18:10:00,35.7,26.0,30.44,NE,49,10.0,14.0,67,0.00,,,0.01,0,weatherlink.com 1.10,2013-02-07 01:10:00,
2013-02-06 18:25:00,35.3,25.0,30.44,NE,46,8.0,11.0,67,0.00,,,0.01,0,weatherlink.com 1.10,2013-02-07 01:25:00,
2013-02-06 18:40:00,35.8,25.0,30.45,NE,42,8.0,11.0,66,0.00,,,0.01,0,weatherlink.com 1.10,2013-02-07 01:40:00,
2013-02-06 18:55:00,35.2,25.0,30.45,NE,53,8.0,10.0,67,0.00,,,0.01,0,weatherlink.com 1.10,2013-02-07 01:55:00,
2013-02-06 19:10:00,35.0,25.0,30.45,ENE,57,9.0,9.0,68,0.00,,,0.01,0,weatherlink.com 1.10,2013-02-07 02:10:00,
2013-02-06 19:25:00,35.5,25.0,30.44,NE,51,8.0,11.0,67,0.00,,,0.01,0,weatherlink.com 1.10,2013-02-07 02:25:00,
2013-02-06 19:40:00,34.6,25.0,30.44,ENE,77,8.0,9.0,67,0.00,,,0.01,0,weatherlink.com 1.10,2013-02-07 02:40:00,
2013-02-06 19:55:00,33.1,24.0,30.44,East,81,2.0,6.0,70,0.00,,,0.01,0,weatherlink.com 1.10,2013-02-07 02:55:00,
2013-02-06 20:10:00,33.0,25.0,30.44,ESE,104,0.0,3.0,72,0.00,,,0.01,0,weatherlink.com 1.10,2013-02-07 03:10:00,
2013-02-06 20:25:00,32.8,26.0,30.44,SSW,194,0.0,2.0,77,0.00,,,0.01,0,weatherlink.com 1.10,2013-02-07 03:25:00,
2013-02-06 20:40:00,32.5,27.0,30.44,SSW,194,0.0,1.0,79,0.00,,,0.01,0,weatherlink.com 1.10,2013-02-07 03:40:00,
2013-02-06 20:55:00,32.2,26.0,30.44,ESE,111,0.0,3.0,79,0.00,,,0.01,0,weatherlink.com 1.10,2013-02-07 03:55:00,
2013-02-06 21:10:00,32.4,26.0,30.45,ESE,111,1.0,1.0,76,0.00,,,0.01,0,weatherlink.com 1.10,2013-02-07 04:10:00,
2013-02-06 21:25:00,31.8,27.0,30.45,SE,138,0.0,2.0,81,0.00,,,0.01,0,weatherlink.com 1.10,2013-02-07 04:25:00,
2013-02-06 21:40:00,31.5,25.0,30.45,SSE,153,3.0,4.0,78,0.00,,,0.01,0,weatherlink.com 1.10,2013-02-07 04:40:00,
2013-02-06 21:55:00,29.9,25.0,30.45,SSW,193,2.0,3.0,81,0.00,,,0.01,0,weatherlink.com 1.10,2013-02-07 04:55:00,
2013-02-06 22:10:00,30.2,25.0,30.45,SSW,198,1.0,3.0,80,0.00,,,0.01,0,weatherlink.com 1.10,2013-02-07 05:10:00,
2013-02-06 22:25:00,30.3,25.0,30.45,SSW,195,1.0,2.0,81,0.00,,,0.01,0,weatherlink.com 1.10,2013-02-07 05:25:00,
2013-02-06 22:40:00,29.6,25.0,30.44,SSW,195,2.0,6.0,82,0.00,,,0.01,0,weatherlink.com 1.10,2013-02-07 05:40:00,
2013-02-06 22:55:00,29.1,24.0,30.44,South,171,6.0,6.0,80,0.00,,,0.01,0,weatherlink.com 1.10,2013-02-07 05:55:00,
2013-02-06 23:10:00,31.4,24.0,30.44,SSE,159,3.0,13.0,73,0.00,,,0.01,0,weatherlink.com 1.10,2013-02-07 06:10:00,
2013-02-06 23:25:00,30.7,23.0,30.44,SSW,202,3.0,4.0,73,0.00,,,0.01,0,weatherlink.com 1.10,2013-02-07 06:25:00,
2013-02-06 23:40:00,29.4,23.0,30.44,SW,215,5.0,6.0,76,0.00,,,0.01,0,weatherlink.com 1.10,2013-02-07 06:40:00,
2013-02-06 23:55:00,28.1,23.0,30.44,South,173,3.0,5.0,81,0.00,,,0.01,0,weatherlink.com 1.10,2013-02-07 06:55:00,